createdAt,value
2024-05-09T00:00:06.817Z,196.67
2024-05-09T00:01:06.115Z,196.88
2024-05-09T00:02:06.060Z,197.32
2024-05-09T00:03:06.219Z,195.77
2024-05-09T00:04:06.193Z,197.98
2024-05-09T00:05:06.340Z,196.20
2024-05-09T00:06:06.242Z,197.85
2024-05-09T00:07:06.295Z,196.48
2024-05-09T00:08:06.461Z,196.28
2024-05-09T00:09:06.397Z,198.21
2024-05-09T00:10:11.671Z,198.21
2024-05-09T00:11:07.475Z,198.27
2024-05-09T00:12:06.645Z,198.41
2024-05-09T00:13:06.870Z,198.39
2024-05-09T00:14:06.458Z,198.91
2024-05-09T00:15:06.417Z,197.93
2024-05-09T00:16:06.411Z,199.41
2024-05-09T00:17:06.542Z,199.21
2024-05-09T00:18:07.353Z,199.98
2024-05-09T00:19:06.575Z,198.95
2024-05-09T00:20:14.295Z,199.20
2024-05-09T00:21:07.607Z,199.27
2024-05-09T00:22:06.526Z,199.30
2024-05-09T00:23:06.654Z,199.59
2024-05-09T00:24:06.531Z,199.85
2024-05-09T00:25:06.547Z,200.49
2024-05-09T00:26:06.586Z,199.24
2024-05-09T00:27:06.592Z,197.36
2024-05-09T00:28:06.526Z,198.71
2024-05-09T00:29:06.572Z,199.51
2024-05-09T00:30:07.423Z,198.92
2024-05-09T00:31:06.658Z,199.24
2024-05-09T00:32:06.735Z,197.89
2024-05-09T00:33:08.261Z,198.87
2024-05-09T00:34:06.831Z,196.73
2024-05-09T00:35:06.862Z,196.70
2024-05-09T00:36:06.726Z,196.98
2024-05-09T00:37:06.795Z,195.97
2024-05-09T00:38:06.918Z,196.69
2024-05-09T00:39:06.762Z,195.11
2024-05-09T00:40:09.577Z,196.93
2024-05-09T00:41:07.788Z,197.09
2024-05-09T00:42:06.730Z,197.50
2024-05-09T00:43:06.860Z,198.38
2024-05-09T00:44:06.809Z,198.89
2024-05-09T00:45:06.807Z,198.32
2024-05-09T00:46:06.752Z,196.31
2024-05-09T00:47:06.895Z,199.32
2024-05-09T00:48:08.395Z,199.21
2024-05-09T00:49:06.856Z,199.18
2024-05-09T00:50:10.145Z,197.13
2024-05-09T00:51:07.898Z,197.30
2024-05-09T00:52:06.766Z,197.72
2024-05-09T00:53:07.174Z,198.08
2024-05-09T00:54:06.756Z,198.93
2024-05-09T00:55:06.760Z,199.36
2024-05-09T00:56:06.872Z,198.12
2024-05-09T00:57:06.834Z,199.39
2024-05-09T00:58:06.792Z,198.00
2024-05-09T00:59:06.927Z,196.89
2024-05-09T01:00:15.004Z,195.96
2024-05-09T01:01:07.818Z,196.12
2024-05-09T01:02:06.938Z,196.55
2024-05-09T01:03:07.358Z,196.86
2024-05-09T01:04:06.968Z,196.72
2024-05-09T01:05:06.862Z,197.70
2024-05-09T01:06:06.835Z,198.71
2024-05-09T01:07:06.892Z,197.70
2024-05-09T01:08:06.937Z,197.54
2024-05-09T01:09:06.781Z,196.20
2024-05-09T01:10:13.822Z,198.50
2024-05-09T01:11:07.876Z,198.59
2024-05-09T01:12:06.965Z,198.85
2024-05-09T01:13:07.393Z,198.82
2024-05-09T01:14:06.880Z,198.54
2024-05-09T01:15:06.796Z,199.50
2024-05-09T01:16:06.806Z,198.66
2024-05-09T01:17:06.886Z,199.50
2024-05-09T01:18:07.139Z,200.00
2024-05-09T01:19:06.958Z,197.80
2024-05-09T01:20:10.789Z,198.00
2024-05-09T01:21:07.856Z,198.07
2024-05-09T01:22:06.839Z,198.23
2024-05-09T01:23:06.917Z,198.09
2024-05-09T01:24:06.825Z,198.27
2024-05-09T01:25:06.837Z,197.90
2024-05-09T01:26:06.877Z,200.00
2024-05-09T01:27:06.846Z,198.43
2024-05-09T01:28:06.871Z,199.68
2024-05-09T01:29:06.887Z,197.45
2024-05-09T01:30:09.579Z,197.01
2024-05-09T01:31:07.911Z,197.12
2024-05-09T01:32:06.926Z,197.45
2024-05-09T01:33:08.959Z,197.78
2024-05-09T01:34:06.911Z,197.15
2024-05-09T01:35:06.919Z,197.57
2024-05-09T01:36:06.903Z,198.59
2024-05-09T01:37:06.874Z,197.81
2024-05-09T01:38:07.029Z,199.14
2024-05-09T01:39:06.894Z,198.75
2024-05-09T01:40:11.955Z,200.00
2024-05-09T01:41:07.909Z,200.14
2024-05-09T01:42:06.900Z,200.24
2024-05-09T01:43:07.110Z,200.59
2024-05-09T01:44:06.926Z,199.62
2024-05-09T01:45:06.891Z,200.91
2024-05-09T01:46:06.969Z,197.50
2024-05-09T01:47:06.960Z,198.29
2024-05-09T01:48:07.118Z,198.19
2024-05-09T01:49:07.019Z,198.25
2024-05-09T01:50:10.669Z,198.56
2024-05-09T01:51:06.940Z,198.60
2024-05-09T01:52:06.909Z,198.57
2024-05-09T01:53:06.951Z,198.96
2024-05-09T01:54:06.928Z,198.98
2024-05-09T01:55:07.106Z,197.79
2024-05-09T01:56:06.980Z,198.06
2024-05-09T01:57:06.909Z,198.26
2024-05-09T01:58:06.886Z,198.66
2024-05-09T01:59:06.963Z,198.75
2024-05-09T02:00:07.969Z,198.54
2024-05-09T02:01:07.068Z,196.43
2024-05-09T02:02:07.089Z,197.76
2024-05-09T02:03:07.214Z,197.80
2024-05-09T02:04:07.196Z,197.58
2024-05-09T02:05:07.144Z,196.82
2024-05-09T02:06:07.130Z,198.77
2024-05-09T02:07:07.003Z,195.16
2024-05-09T02:08:07.080Z,198.43
2024-05-09T02:09:06.970Z,199.33
2024-05-09T02:11:07.172Z,50.00
2024-05-09T02:12:07.227Z,50.00
2024-05-09T02:13:07.005Z,50.00
2024-05-09T02:14:07.153Z,50.00
2024-05-09T02:15:07.022Z,50.00
2024-05-09T02:16:07.006Z,51.30
2024-05-09T02:17:07.109Z,50.86
2024-05-09T02:18:07.373Z,50.56
2024-05-09T02:19:07.200Z,52.10
2024-05-09T02:20:10.750Z,51.78
2024-05-09T02:21:08.156Z,51.86
2024-05-09T02:22:07.046Z,51.20
2024-05-09T02:23:07.422Z,51.95
2024-05-09T02:24:07.022Z,49.74
2024-05-09T02:25:07.133Z,50.56
2024-05-09T02:26:07.083Z,51.45
2024-05-09T02:27:07.098Z,51.15
2024-05-09T02:28:07.049Z,52.56
2024-05-09T02:29:07.054Z,50.43
2024-05-09T02:30:18.342Z,51.57
2024-05-09T02:31:08.141Z,51.67
2024-05-09T02:32:07.186Z,51.72
2024-05-09T02:33:07.514Z,52.34
2024-05-09T02:34:07.130Z,51.59
2024-05-09T02:35:07.079Z,51.11
2024-05-09T02:36:07.062Z,51.44
2024-05-09T02:37:07.033Z,52.37
2024-05-09T02:38:07.263Z,51.50
2024-05-09T02:39:07.063Z,52.13
2024-05-09T02:40:11.503Z,51.09
2024-05-09T02:41:08.192Z,51.21
2024-05-09T02:42:07.038Z,51.30
2024-05-09T02:43:07.558Z,52.14
2024-05-09T02:44:07.203Z,51.35
2024-05-09T02:45:07.077Z,51.80
2024-05-09T02:46:07.117Z,52.12
2024-05-09T02:47:07.391Z,51.82
2024-05-09T02:48:07.351Z,52.67
2024-05-09T02:49:07.227Z,51.87
2024-05-09T02:50:08.249Z,52.81
2024-05-09T02:51:07.437Z,51.35
2024-05-09T02:52:07.101Z,50.96
2024-05-09T02:53:07.224Z,53.42
2024-05-09T02:54:07.123Z,52.50
2024-05-09T02:55:07.133Z,52.85
2024-05-09T02:56:07.206Z,53.76
2024-05-09T02:57:07.158Z,51.57
2024-05-09T02:58:07.172Z,50.95
2024-05-09T02:59:07.230Z,52.97
2024-05-09T03:00:14.977Z,54.54
2024-05-09T03:01:08.279Z,54.60
2024-05-09T03:02:07.401Z,54.01
2024-05-09T03:03:07.663Z,55.19
2024-05-09T03:04:07.355Z,54.72
2024-05-09T03:05:07.273Z,54.35
2024-05-09T03:06:07.292Z,55.27
2024-05-09T03:07:07.268Z,54.40
2024-05-09T03:08:07.324Z,54.17
2024-05-09T03:09:07.266Z,53.04
2024-05-09T03:10:14.575Z,53.10
2024-05-09T03:11:08.416Z,53.20
2024-05-09T03:12:07.482Z,53.39
2024-05-09T03:13:07.293Z,53.67
2024-05-09T03:14:07.304Z,53.91
2024-05-09T03:15:07.266Z,54.83
2024-05-09T03:16:07.277Z,55.06
2024-05-09T03:17:07.401Z,54.05
2024-05-09T03:18:07.713Z,53.96
2024-05-09T03:19:07.364Z,54.62
2024-05-09T03:20:14.548Z,55.00
2024-05-09T03:21:08.362Z,55.12
2024-05-09T03:22:07.272Z,55.23
2024-05-09T03:23:07.486Z,54.99
2024-05-09T03:24:07.249Z,56.05
2024-05-09T03:25:07.266Z,54.74
2024-05-09T03:26:07.293Z,54.47
2024-05-09T03:27:07.301Z,55.09
2024-05-09T03:28:07.402Z,53.95
2024-05-09T03:29:07.332Z,55.80
2024-05-09T03:30:07.608Z,53.92
2024-05-09T03:31:07.306Z,54.61
2024-05-09T03:32:07.328Z,53.50
2024-05-09T03:33:07.587Z,55.07
2024-05-09T03:34:07.378Z,55.34
2024-05-09T03:35:07.323Z,55.08
2024-05-09T03:36:10.568Z,54.55
2024-05-09T03:37:07.340Z,57.08
2024-05-09T03:38:07.362Z,56.51
2024-05-09T03:39:07.311Z,54.73
2024-05-09T03:40:11.754Z,56.28
2024-05-09T03:41:08.343Z,56.36
2024-05-09T03:42:07.299Z,56.54
2024-05-09T03:43:07.311Z,57.08
2024-05-09T03:44:07.415Z,57.16
2024-05-09T03:45:07.301Z,56.94
2024-05-09T03:46:07.366Z,56.68
2024-05-09T03:47:07.391Z,57.38
2024-05-09T03:48:07.463Z,57.17
2024-05-09T03:49:07.402Z,57.16
2024-05-09T03:50:15.210Z,56.30
2024-05-09T03:51:08.587Z,56.39
2024-05-09T03:52:07.345Z,56.65
2024-05-09T03:53:07.420Z,56.96
2024-05-09T03:54:07.358Z,56.99
2024-05-09T03:55:07.357Z,56.47
2024-05-09T03:56:07.337Z,59.08
2024-05-09T03:57:07.362Z,56.71
2024-05-09T03:58:07.359Z,57.42
2024-05-09T03:59:07.374Z,57.24
2024-05-09T04:00:14.498Z,56.70
2024-05-09T04:01:08.412Z,56.78
2024-05-09T04:02:07.449Z,57.18
2024-05-09T04:03:09.833Z,57.27
2024-05-09T04:04:07.374Z,56.80
2024-05-09T04:05:07.379Z,56.90
2024-05-09T04:06:07.398Z,56.14
2024-05-09T04:07:07.354Z,54.49
2024-05-09T04:08:07.532Z,54.22
2024-05-09T04:09:07.345Z,50.71
2024-05-09T04:10:11.159Z,51.59
2024-05-09T04:11:08.537Z,51.65
2024-05-09T04:12:07.463Z,49.14
2024-05-09T04:13:07.376Z,48.50
2024-05-09T04:14:07.451Z,45.62
2024-05-09T04:15:09.646Z,43.53
2024-05-09T04:16:07.358Z,45.86
2024-05-09T04:17:07.426Z,42.60
2024-05-09T04:18:07.619Z,40.60
2024-05-09T04:19:07.444Z,38.35
2024-05-09T04:20:10.556Z,36.29
2024-05-09T04:21:07.506Z,50.00
2024-05-09T04:22:07.372Z,50.20
2024-05-09T04:23:08.499Z,50.43
2024-05-09T04:24:07.454Z,51.17
2024-05-09T04:25:07.409Z,51.06
2024-05-09T04:26:07.409Z,50.63
2024-05-09T04:27:07.457Z,52.35
2024-05-09T04:28:07.383Z,50.42
2024-05-09T04:29:07.464Z,51.81
2024-05-09T04:30:21.821Z,50.00
2024-05-09T04:31:27.365Z,50.00
2024-05-09T04:32:27.447Z,50.00
2024-05-09T04:33:27.559Z,50.00
2024-05-09T04:34:27.443Z,50.00
2024-05-09T04:35:27.504Z,50.00
2024-05-09T04:36:27.368Z,50.78
2024-05-09T04:37:27.407Z,50.36
2024-05-09T04:38:27.386Z,51.31
2024-05-09T04:39:27.382Z,50.70
2024-05-09T04:40:33.208Z,50.00
2024-05-09T04:41:28.500Z,50.18
2024-05-09T04:42:27.400Z,50.36
2024-05-09T04:43:27.422Z,49.38
2024-05-09T04:44:27.637Z,49.98
2024-05-09T04:45:27.373Z,48.48
2024-05-09T04:46:27.446Z,51.74
2024-05-09T04:47:27.538Z,50.78
2024-05-09T04:48:27.554Z,54.09
2024-05-09T04:49:27.432Z,50.27
2024-05-09T04:50:35.143Z,51.27
2024-05-09T04:51:28.401Z,51.39
2024-05-09T04:52:27.417Z,51.68
2024-05-09T04:53:27.514Z,51.63
2024-05-09T04:54:34.212Z,52.08
2024-05-09T04:55:28.462Z,51.37
2024-05-09T04:56:27.463Z,51.67
2024-05-09T04:57:27.411Z,52.51
2024-05-09T04:58:27.417Z,52.16
2024-05-09T04:59:27.529Z,53.95
2024-05-09T05:00:35.289Z,53.10
2024-05-09T05:01:28.482Z,53.21
2024-05-09T05:02:27.525Z,53.40
2024-05-09T05:03:27.669Z,53.43
2024-05-09T05:04:27.454Z,54.24
2024-05-09T05:05:27.482Z,54.64
2024-05-09T05:06:27.512Z,52.66
2024-05-09T05:07:27.421Z,54.00
2024-05-09T05:08:27.468Z,53.25
2024-05-09T05:09:27.410Z,51.62
2024-05-09T05:10:33.640Z,54.01
2024-05-09T05:11:28.557Z,54.10
2024-05-09T05:12:27.510Z,53.65
2024-05-09T05:13:27.446Z,54.33
2024-05-09T05:14:27.545Z,55.13
2024-05-09T05:15:27.463Z,53.94
2024-05-09T05:16:27.447Z,54.86
2024-05-09T05:17:27.585Z,53.29
2024-05-09T05:18:28.067Z,56.23
2024-05-09T05:19:27.759Z,54.38
2024-05-09T05:20:33.052Z,54.18
2024-05-09T05:21:28.576Z,54.33
2024-05-09T05:22:27.464Z,54.55
2024-05-09T05:23:27.496Z,55.13
2024-05-09T05:24:27.491Z,56.16
2024-05-09T05:25:27.455Z,55.91
2024-05-09T05:26:27.521Z,57.69
2024-05-09T05:27:27.462Z,56.84
2024-05-09T05:28:27.532Z,56.51
2024-05-09T05:29:27.556Z,56.51
2024-05-09T05:30:32.567Z,56.25
2024-05-09T05:31:28.557Z,56.39
2024-05-09T05:32:27.580Z,56.53
2024-05-09T05:33:27.736Z,57.10
2024-05-09T05:34:27.483Z,57.70
2024-05-09T05:35:27.536Z,58.59
2024-05-09T05:36:27.555Z,58.03
2024-05-09T05:37:27.515Z,59.99
2024-05-09T05:38:28.587Z,57.62
2024-05-09T05:39:27.467Z,58.95
2024-05-09T05:40:33.491Z,57.68
2024-05-09T05:41:28.589Z,57.79
2024-05-09T05:42:27.538Z,58.16
2024-05-09T05:43:27.562Z,58.29
2024-05-09T05:44:27.672Z,60.23
2024-05-09T05:45:27.512Z,62.36
2024-05-09T05:46:27.523Z,62.74
2024-05-09T05:47:27.739Z,59.57
2024-05-09T05:48:27.738Z,59.75
2024-05-09T05:49:27.660Z,62.23
2024-05-09T05:50:34.604Z,59.13
2024-05-09T05:51:28.522Z,59.32
2024-05-09T05:52:27.526Z,59.78
2024-05-09T05:53:27.618Z,60.40
2024-05-09T05:54:27.521Z,61.30
2024-05-09T05:55:27.522Z,61.69
2024-05-09T05:56:27.617Z,61.42
2024-05-09T05:57:27.536Z,62.14
2024-05-09T05:58:27.550Z,61.50
2024-05-09T05:59:27.580Z,61.04
2024-05-09T06:00:34.441Z,63.01
2024-05-09T06:01:28.589Z,63.07
2024-05-09T06:02:27.630Z,63.06
2024-05-09T06:03:27.745Z,63.20
2024-05-09T06:04:27.579Z,61.59
2024-05-09T06:05:27.882Z,63.27
2024-05-09T06:06:27.547Z,61.62
2024-05-09T06:07:27.548Z,62.46
2024-05-09T06:08:30.265Z,61.62
2024-05-09T06:09:27.529Z,63.54
2024-05-09T06:10:35.087Z,62.89
2024-05-09T06:11:28.708Z,63.02
2024-05-09T06:12:27.625Z,63.08
2024-05-09T06:13:27.556Z,63.18
2024-05-09T06:14:27.718Z,64.07
2024-05-09T06:15:27.536Z,63.16
2024-05-09T06:16:27.567Z,63.20
2024-05-09T06:17:27.684Z,63.06
2024-05-09T06:18:27.676Z,63.77
2024-05-09T06:19:27.752Z,63.12
2024-05-09T06:20:35.219Z,57.39
2024-05-09T06:21:28.747Z,57.64
2024-05-09T06:22:27.718Z,58.37
2024-05-09T06:23:27.748Z,58.34
2024-05-09T06:24:27.703Z,54.54
2024-05-09T06:25:27.719Z,53.01
2024-05-09T06:26:27.755Z,58.59
2024-05-09T06:27:27.737Z,57.46
2024-05-09T06:28:27.736Z,50.00
2024-05-09T06:29:27.861Z,50.00
2024-05-09T06:30:36.640Z,54.21
2024-05-09T06:31:28.852Z,54.25
2024-05-09T06:32:27.871Z,53.11
2024-05-09T06:33:28.294Z,54.38
2024-05-09T06:34:27.825Z,54.71
2024-05-09T06:35:27.880Z,56.43
2024-05-09T06:36:27.721Z,56.35
2024-05-09T06:37:27.756Z,53.19
2024-05-09T06:38:27.826Z,55.17
2024-05-09T06:39:27.717Z,56.38
2024-05-09T06:40:35.786Z,55.47
2024-05-09T06:41:28.822Z,54.44
2024-05-09T06:42:27.726Z,54.66
2024-05-09T06:43:27.750Z,53.99
2024-05-09T06:44:27.899Z,51.97
2024-05-09T06:45:27.758Z,52.98
2024-05-09T06:46:27.755Z,54.02
2024-05-09T06:47:27.907Z,53.18
2024-05-09T06:48:27.850Z,53.63
2024-05-09T06:49:27.919Z,50.00
2024-05-09T06:50:31.235Z,51.17
2024-05-09T06:51:28.803Z,51.27
2024-05-09T06:52:27.795Z,51.10
2024-05-09T06:53:27.887Z,51.63
2024-05-09T06:54:27.799Z,52.17
2024-05-09T06:55:27.817Z,51.40
2024-05-09T06:56:27.854Z,53.03
2024-05-09T06:57:27.837Z,50.76
2024-05-09T06:58:27.799Z,50.58
2024-05-09T06:59:27.838Z,50.36
2024-05-09T07:00:35.556Z,53.76
2024-05-09T07:01:28.900Z,53.85
2024-05-09T07:02:27.922Z,53.88
2024-05-09T07:03:28.004Z,54.89
2024-05-09T07:04:27.939Z,55.41
2024-05-09T07:05:27.924Z,53.86
2024-05-09T07:06:27.875Z,56.79
2024-05-09T07:07:27.861Z,54.96
2024-05-09T07:08:27.931Z,54.19
2024-05-09T07:09:27.884Z,52.74
2024-05-09T07:10:32.920Z,52.48
2024-05-09T07:11:28.882Z,52.66
2024-05-09T07:12:27.980Z,52.90
2024-05-09T07:13:27.864Z,53.88
2024-05-09T07:14:27.915Z,54.38
2024-05-09T07:15:27.858Z,54.10
2024-05-09T07:16:27.900Z,53.26
2024-05-09T07:17:28.065Z,57.47
2024-05-09T07:18:28.069Z,54.26
2024-05-09T07:19:28.009Z,54.79
2024-05-09T07:20:34.155Z,54.50
2024-05-09T07:21:28.881Z,54.55
2024-05-09T07:22:27.872Z,54.66
2024-05-09T07:23:27.890Z,55.72
2024-05-09T07:24:27.867Z,56.26
2024-05-09T07:25:27.893Z,55.05
2024-05-09T07:26:27.942Z,55.74
2024-05-09T07:27:27.896Z,56.25
2024-05-09T07:28:27.912Z,54.70
2024-05-09T07:29:28.030Z,54.17
2024-05-09T07:30:33.234Z,54.27
2024-05-09T07:31:28.890Z,54.35
2024-05-09T07:32:28.071Z,54.62
2024-05-09T07:33:27.933Z,54.71
2024-05-09T07:34:27.960Z,55.82
2024-05-09T07:35:28.014Z,54.48
2024-05-09T07:36:27.894Z,55.20
2024-05-09T07:37:27.922Z,54.98
2024-05-09T07:38:27.896Z,53.36
2024-05-09T07:39:27.894Z,54.65
2024-05-09T07:40:34.604Z,50.76
2024-05-09T07:41:28.932Z,50.87
2024-05-09T07:42:27.887Z,51.69
2024-05-09T07:43:27.940Z,52.58
2024-05-09T07:44:27.978Z,54.88
2024-05-09T07:45:44.973Z,56.96
2024-05-09T07:47:36.835Z,51.13
2024-05-09T07:48:57.171Z,51.13
2024-05-09T07:50:01.107Z,51.28
2024-05-09T07:53:32.400Z,51.41
2024-05-09T07:53:39.991Z,51.47
2024-05-09T07:54:29.051Z,51.42
2024-05-09T07:55:28.159Z,53.28
2024-05-09T07:56:28.273Z,56.23
2024-05-09T07:57:28.024Z,59.75
2024-05-09T07:58:28.056Z,62.28
2024-05-09T07:59:27.952Z,63.15
2024-05-09T08:00:31.483Z,61.71
2024-05-09T08:01:28.074Z,61.82
2024-05-09T08:02:28.064Z,61.90
2024-05-09T08:03:28.137Z,61.76
2024-05-09T08:04:28.083Z,60.93
2024-05-09T08:05:28.153Z,60.56
2024-05-09T08:06:28.117Z,60.29
2024-05-09T08:07:27.977Z,61.73
2024-05-09T08:08:27.969Z,63.65
2024-05-09T08:09:28.027Z,62.60
2024-05-09T08:10:29.213Z,61.38
2024-05-09T08:11:28.025Z,62.23
2024-05-09T08:12:27.980Z,60.46
2024-05-09T08:13:27.992Z,61.22
2024-05-09T08:14:27.990Z,59.36
2024-05-09T08:15:28.095Z,59.30
2024-05-09T08:16:28.034Z,62.10
2024-05-09T08:17:28.097Z,60.55
2024-05-09T08:18:28.204Z,60.15
2024-05-09T08:19:28.058Z,59.65
2024-05-09T08:20:33.434Z,61.21
2024-05-09T08:21:29.075Z,61.21
2024-05-09T08:22:28.014Z,59.07
2024-05-09T08:23:28.009Z,60.51
2024-05-09T08:24:28.017Z,60.58
2024-05-09T08:25:28.238Z,61.26
2024-05-09T08:26:27.989Z,58.85
2024-05-09T08:27:28.042Z,59.51
2024-05-09T08:28:28.114Z,59.27
2024-05-09T08:29:28.000Z,60.21
2024-05-09T08:30:33.753Z,59.33
2024-05-09T08:31:29.228Z,59.51
2024-05-09T08:32:28.102Z,59.78
2024-05-09T08:33:28.171Z,60.91
2024-05-09T08:34:28.108Z,60.72
2024-05-09T08:35:28.044Z,62.27
2024-05-09T08:36:28.195Z,61.21
2024-05-09T08:37:32.808Z,61.44
2024-05-09T08:38:29.040Z,61.60
2024-05-09T08:39:28.059Z,61.79
2024-05-09T08:40:34.188Z,62.05
2024-05-09T08:41:29.036Z,61.55
2024-05-09T08:42:28.089Z,61.92
2024-05-09T08:43:28.086Z,61.72
2024-05-09T08:44:28.059Z,62.42
2024-05-09T08:45:28.089Z,60.06
2024-05-09T08:46:28.148Z,58.48
2024-05-09T08:47:28.124Z,59.66
2024-05-09T08:48:28.167Z,58.72
2024-05-09T08:49:28.137Z,58.70
2024-05-09T08:50:36.337Z,59.42
2024-05-09T08:51:29.074Z,59.54
2024-05-09T08:52:28.057Z,59.44
2024-05-09T08:53:28.040Z,59.43
2024-05-09T08:54:28.145Z,60.42
2024-05-09T08:55:28.048Z,57.35
2024-05-09T08:56:28.102Z,59.58
2024-05-09T08:57:28.169Z,59.18
2024-05-09T08:58:28.077Z,60.74
2024-05-09T08:59:28.111Z,60.07
2024-05-09T09:00:35.836Z,59.39
2024-05-09T09:01:29.236Z,59.48
2024-05-09T09:02:28.418Z,59.74
2024-05-09T09:03:28.283Z,60.00
2024-05-09T09:04:28.244Z,60.86
2024-05-09T09:05:28.317Z,62.93
2024-05-09T09:06:28.185Z,61.33
2024-05-09T09:07:28.272Z,60.46
2024-05-09T09:08:28.186Z,63.45
2024-05-09T09:09:28.310Z,62.83
2024-05-09T09:10:32.088Z,63.89
2024-05-09T09:11:28.348Z,63.90
2024-05-09T09:12:28.296Z,64.10
2024-05-09T09:13:28.306Z,64.15
2024-05-09T09:14:28.247Z,64.39
2024-05-09T09:15:28.313Z,63.51
2024-05-09T09:16:28.321Z,63.73
2024-05-09T09:17:28.333Z,67.46
2024-05-09T09:18:28.650Z,65.71
2024-05-09T09:19:28.365Z,65.39
2024-05-09T09:20:34.035Z,64.62
2024-05-09T09:21:29.406Z,64.63
2024-05-09T09:22:28.357Z,65.17
2024-05-09T09:23:28.359Z,65.24
2024-05-09T09:24:28.417Z,66.64
2024-05-09T09:25:28.340Z,68.39
2024-05-09T09:26:28.379Z,67.61
2024-05-09T09:27:28.375Z,65.54
2024-05-09T09:28:28.341Z,67.02
2024-05-09T09:29:28.344Z,65.77
2024-05-09T09:30:36.183Z,66.56
2024-05-09T09:31:29.503Z,66.65
2024-05-09T09:32:28.420Z,66.87
2024-05-09T09:33:28.461Z,66.58
2024-05-09T09:34:28.568Z,68.17
2024-05-09T09:35:28.373Z,67.29
2024-05-09T09:36:28.380Z,67.28
2024-05-09T09:37:28.389Z,67.80
2024-05-09T09:38:28.363Z,67.54
2024-05-09T09:39:28.414Z,68.10
2024-05-09T09:40:32.183Z,68.71
2024-05-09T09:41:29.403Z,68.81
2024-05-09T09:42:28.410Z,68.76
2024-05-09T09:43:28.402Z,69.75
2024-05-09T09:44:28.395Z,68.86
2024-05-09T09:45:28.451Z,69.38
2024-05-09T09:46:28.428Z,69.98
2024-05-09T09:47:28.483Z,72.18
2024-05-09T09:48:28.504Z,71.32
2024-05-09T09:49:28.411Z,70.91
2024-05-09T09:50:34.131Z,70.51
2024-05-09T09:51:29.437Z,70.74
2024-05-09T09:52:28.422Z,71.21
2024-05-09T09:53:28.397Z,71.64
2024-05-09T09:54:28.436Z,71.54
2024-05-09T09:55:28.512Z,73.41
2024-05-09T09:56:28.413Z,73.37
2024-05-09T09:57:28.488Z,73.97
2024-05-09T09:58:28.554Z,73.56
2024-05-09T09:59:28.413Z,74.73
2024-05-09T10:00:32.879Z,75.25
2024-05-09T10:01:29.825Z,75.32
2024-05-09T10:02:28.530Z,75.53
2024-05-09T10:03:28.571Z,76.08
2024-05-09T10:04:28.528Z,76.65
2024-05-09T10:05:28.620Z,78.19
2024-05-09T10:06:28.501Z,78.14
2024-05-09T10:07:28.451Z,77.47
2024-05-09T10:08:28.465Z,76.49
2024-05-09T10:09:28.486Z,77.42
2024-05-09T10:10:32.443Z,76.24
2024-05-09T10:11:28.560Z,76.31
2024-05-09T10:12:28.487Z,76.27
2024-05-09T10:13:28.441Z,76.80
2024-05-09T10:14:28.438Z,78.55
2024-05-09T10:15:28.531Z,78.01
2024-05-09T10:16:28.522Z,75.44
2024-05-09T10:17:28.590Z,78.99
2024-05-09T10:18:30.427Z,77.57
2024-05-09T10:19:28.607Z,77.28
2024-05-09T10:20:32.531Z,77.80
2024-05-09T10:21:28.578Z,77.96
2024-05-09T10:22:28.463Z,78.09
2024-05-09T10:23:28.599Z,78.03
2024-05-09T10:24:28.560Z,78.47
2024-05-09T10:25:28.612Z,78.71
2024-05-09T10:26:28.459Z,79.28
2024-05-09T10:27:28.569Z,78.54
2024-05-09T10:28:28.590Z,78.63
2024-05-09T10:29:28.479Z,77.02
2024-05-09T10:30:34.228Z,76.93
2024-05-09T10:31:29.554Z,77.06
2024-05-09T10:32:28.728Z,77.18
2024-05-09T10:33:28.589Z,77.34
2024-05-09T10:34:28.566Z,77.62
2024-05-09T10:35:28.541Z,79.31
2024-05-09T10:36:28.567Z,76.49
2024-05-09T10:37:28.539Z,77.01
2024-05-09T10:38:28.495Z,77.83
2024-05-09T10:39:28.547Z,76.17
2024-05-09T10:40:31.408Z,75.94
2024-05-09T10:41:28.598Z,78.59
2024-05-09T10:42:28.561Z,78.89
2024-05-09T10:43:28.525Z,77.02
2024-05-09T10:44:28.509Z,79.29
2024-05-09T10:45:28.567Z,76.13
2024-05-09T10:46:28.534Z,74.85
2024-05-09T10:47:28.714Z,75.40
2024-05-09T10:48:28.618Z,76.70
2024-05-09T10:49:28.562Z,74.22
2024-05-09T10:50:31.981Z,75.14
2024-05-09T10:51:29.533Z,75.21
2024-05-09T10:52:28.579Z,75.39
2024-05-09T10:53:28.550Z,75.88
2024-05-09T10:54:28.568Z,76.39
2024-05-09T10:55:28.617Z,75.46
2024-05-09T10:56:28.524Z,76.64
2024-05-09T10:57:28.582Z,74.49
2024-05-09T10:58:28.532Z,73.18
2024-05-09T10:59:28.616Z,73.31
2024-05-09T11:00:33.814Z,74.57
2024-05-09T11:01:29.582Z,74.69
2024-05-09T11:02:28.726Z,74.86
2024-05-09T11:03:28.682Z,75.56
2024-05-09T11:04:28.625Z,75.51
2024-05-09T11:05:28.775Z,75.25
2024-05-09T11:06:28.559Z,75.64
2024-05-09T11:07:28.616Z,75.41
2024-05-09T11:08:28.542Z,73.38
2024-05-09T11:09:28.621Z,75.21
2024-05-09T11:10:33.744Z,73.14
2024-05-09T11:11:29.647Z,73.29
2024-05-09T11:12:28.599Z,73.59
2024-05-09T11:13:28.550Z,73.41
2024-05-09T11:14:28.598Z,74.89
2024-05-09T11:15:28.563Z,74.75
2024-05-09T11:16:28.620Z,75.26
2024-05-09T11:17:28.763Z,73.03
2024-05-09T11:18:30.842Z,72.67
2024-05-09T11:19:29.700Z,72.78
2024-05-09T11:20:29.977Z,73.06
2024-05-09T11:21:28.581Z,72.73
2024-05-09T11:22:28.659Z,73.10
2024-05-09T11:23:28.613Z,73.05
2024-05-09T11:24:28.623Z,72.77
2024-05-09T11:25:28.566Z,73.35
2024-05-09T11:26:28.556Z,72.75
2024-05-09T11:27:28.628Z,74.61
2024-05-09T11:28:28.966Z,72.84
2024-05-09T11:29:28.624Z,74.09
2024-05-09T11:30:31.884Z,72.35
2024-05-09T11:31:28.682Z,72.49
2024-05-09T11:32:28.823Z,72.72
2024-05-09T11:33:28.729Z,72.97
2024-05-09T11:34:28.713Z,71.09
2024-05-09T11:35:28.640Z,73.39
2024-05-09T11:36:28.650Z,73.01
2024-05-09T11:37:28.662Z,71.63
2024-05-09T11:38:28.588Z,73.96
2024-05-09T11:39:28.606Z,70.28
2024-05-09T11:40:34.071Z,70.36
2024-05-09T11:41:29.643Z,70.55
2024-05-09T11:42:28.658Z,71.13
2024-05-09T11:43:28.640Z,71.38
2024-05-09T11:44:28.613Z,70.37
2024-05-09T11:45:28.646Z,70.54
2024-05-09T11:46:28.643Z,70.76
2024-05-09T11:47:28.782Z,71.08
2024-05-09T11:48:28.724Z,70.85
2024-05-09T11:49:28.707Z,69.63
2024-05-09T11:50:32.895Z,73.38
2024-05-09T11:51:29.621Z,73.44
2024-05-09T11:52:28.629Z,72.22
2024-05-09T11:53:28.698Z,71.54
2024-05-09T11:54:28.734Z,71.76
2024-05-09T11:55:28.729Z,70.86
2024-05-09T11:56:28.634Z,71.63
2024-05-09T11:57:28.739Z,71.21
2024-05-09T11:58:28.662Z,71.21
2024-05-09T11:59:28.655Z,71.60
2024-05-09T12:00:34.404Z,70.44
2024-05-09T12:01:29.823Z,70.54
2024-05-09T12:02:28.691Z,70.75
2024-05-09T12:03:28.700Z,70.72
2024-05-09T12:04:28.774Z,71.13
2024-05-09T12:05:29.072Z,71.94
2024-05-09T12:06:28.652Z,73.27
2024-05-09T12:07:28.667Z,70.22
2024-05-09T12:08:28.683Z,69.22
2024-05-09T12:09:28.680Z,70.57
2024-05-09T12:10:32.902Z,70.21
2024-05-09T12:11:29.683Z,70.33
2024-05-09T12:12:28.752Z,70.59
2024-05-09T12:13:28.728Z,70.31
2024-05-09T12:14:28.654Z,69.58
2024-05-09T12:15:28.784Z,70.39
2024-05-09T12:16:28.851Z,71.08
2024-05-09T12:17:28.839Z,71.28
2024-05-09T12:18:28.926Z,71.28
2024-05-09T12:19:28.697Z,69.82
2024-05-09T12:20:35.811Z,70.55
2024-05-09T12:21:29.750Z,70.65
2024-05-09T12:22:28.667Z,70.68
2024-05-09T12:23:28.683Z,70.77
2024-05-09T12:24:28.749Z,69.81
2024-05-09T12:25:28.696Z,69.11
2024-05-09T12:26:28.677Z,71.88
2024-05-09T12:27:28.713Z,70.70
2024-05-09T12:28:28.731Z,68.10
2024-05-09T12:29:28.685Z,69.59
2024-05-09T12:30:35.992Z,69.76
2024-05-09T12:31:29.768Z,69.90
2024-05-09T12:32:28.819Z,69.47
2024-05-09T12:33:28.829Z,70.39
2024-05-09T12:34:28.798Z,70.75
2024-05-09T12:35:28.712Z,71.97
2024-05-09T12:36:28.798Z,70.49
2024-05-09T12:37:28.679Z,71.31
2024-05-09T12:38:28.710Z,69.81
2024-05-09T12:39:28.750Z,70.89
2024-05-09T12:40:35.670Z,71.93
2024-05-09T12:41:29.720Z,72.00
2024-05-09T12:42:30.523Z,72.13
2024-05-09T12:43:28.831Z,72.83
2024-05-09T12:44:28.747Z,73.05
2024-05-09T12:45:28.800Z,73.19
2024-05-09T12:46:28.902Z,71.80
2024-05-09T12:47:28.840Z,72.34
2024-05-09T12:48:29.040Z,71.89
2024-05-09T12:49:28.901Z,72.70
2024-05-09T12:50:32.761Z,71.61
2024-05-09T12:51:29.986Z,71.75
2024-05-09T12:52:28.738Z,72.18